Time;durP1;ratioP1;P1;durP2;ratioP2;P2;SDS_P1;SDS_P2;PMS_P1;PMS_P2;Temp;Humidity;BMP_temperature;BMP_pressure;BME280_temperature;BME280_humidity;BME280_pressure;Samples;Min_cycle;Max_cycle;Signal;HPM_P1;HPM_P2
2021/01/15 00:01:04;;;;;;;8.00;5.07;;;0.40;99.90;;;;;;5076003;28;20417;-74
2021/01/15 00:03:33;;;;;;;5.90;3.93;;;0.50;99.90;;;;;;5083826;28;20421;-75
2021/01/15 00:05:58;;;;;;;6.20;5.23;;;0.50;99.90;;;;;;5077823;28;20433;-75
2021/01/15 00:08:24;;;;;;;14.83;6.17;;;0.40;99.90;;;;;;5081333;28;20404;-75
2021/01/15 00:10:49;;;;;;;10.23;4.70;;;0.40;99.90;;;;;;5082673;28;20223;-75
2021/01/15 00:13:15;;;;;;;7.87;5.10;;;0.40;99.90;;;;;;5078479;28;20183;-75
2021/01/15 00:15:40;;;;;;;11.83;4.50;;;0.40;99.90;;;;;;5078994;28;20231;-76
2021/01/15 00:18:06;;;;;;;9.40;4.60;;;0.30;99.90;;;;;;5082640;28;20192;-75
2021/01/15 00:20:31;;;;;;;7.50;4.50;;;0.30;99.90;;;;;;5077109;28;20176;-74
2021/01/15 00:22:57;;;;;;;5.43;3.83;;;0.30;99.90;;;;;;5081414;28;20249;-75
2021/01/15 00:25:22;;;;;;;4.30;3.57;;;0.30;99.90;;;;;;5084199;28;20215;-75
2021/01/15 00:27:48;;;;;;;6.80;3.33;;;0.30;99.90;;;;;;5078826;28;20253;-75
2021/01/15 00:30:13;;;;;;;7.67;4.10;;;0.30;99.90;;;;;;5081406;28;20689;-75
2021/01/15 00:32:39;;;;;;;4.60;3.40;;;0.30;99.90;;;;;;5078374;28;20188;-75
2021/01/15 00:35:07;;;;;;;4.17;3.23;;;0.30;99.90;;;;;;5079033;28;20196;-75
2021/01/15 00:37:42;;;;;;;4.10;3.40;;;0.30;99.90;;;;;;5079180;28;20750;-76
2021/01/15 00:40:08;;;;;;;5.50;3.50;;;0.20;99.90;;;;;;5082032;28;20384;-75
2021/01/15 00:42:33;;;;;;;4.10;3.70;;;0.20;99.90;;;;;;5078600;28;20461;-75
2021/01/15 00:44:59;;;;;;;4.97;3.60;;;0.20;99.90;;;;;;5079152;28;20463;-76
2021/01/15 00:47:29;;;;;;;4.23;3.83;;;0.10;99.90;;;;;;5083464;28;20188;-75
2021/01/15 00:49:55;;;;;;;5.93;3.40;;;0.10;99.90;;;;;;5109357;27;20411;-75
2021/01/15 00:52:20;;;;;;;3.73;3.10;;;0.20;99.90;;;;;;5080075;28;20897;-75
2021/01/15 00:54:46;;;;;;;4.20;3.10;;;0.10;99.90;;;;;;5076924;28;20264;-75
2021/01/15 00:57:11;;;;;;;4.83;3.80;;;0.10;99.90;;;;;;5081981;28;20211;-76
2021/01/15 00:59:37;;;;;;;4.20;3.37;;;0.10;99.90;;;;;;5078339;28;20217;-74
2021/01/15 01:02:02;;;;;;;5.50;3.60;;;0.10;99.90;;;;;;5078792;28;20185;-74
2021/01/15 01:04:28;;;;;;;6.73;3.17;;;0.10;99.90;;;;;;5076848;28;20200;-77
2021/01/15 01:06:53;;;;;;;5.17;3.50;;;0.10;99.90;;;;;;5079449;28;20198;-75
2021/01/15 01:09:19;;;;;;;7.27;3.80;;;0.10;99.90;;;;;;5077164;28;20257;-74
2021/01/15 01:11:44;;;;;;;5.73;2.90;;;0.10;99.90;;;;;;5112592;27;20227;-74
2021/01/15 01:14:10;;;;;;;5.63;3.03;;;0.10;99.90;;;;;;5081735;28;20266;-75
2021/01/15 01:16:36;;;;;;;4.77;3.10;;;0.10;99.90;;;;;;5076039;28;20677;-74
2021/01/15 01:19:01;;;;;;;5.43;3.10;;;0.10;99.90;;;;;;5078444;28;20185;-75
2021/01/15 01:21:27;;;;;;;4.10;3.07;;;0.10;99.90;;;;;;5075110;28;20187;-74
2021/01/15 01:23:54;;;;;;;2.93;2.73;;;0.20;99.90;;;;;;5083267;28;20263;-75
2021/01/15 01:26:20;;;;;;;2.23;2.07;;;0.20;99.90;;;;;;5074101;28;20415;-74
2021/01/15 01:28:46;;;;;;;7.50;3.07;;;0.20;99.90;;;;;;5077958;28;20486;-74
2021/01/15 01:31:17;;;;;;;5.33;2.47;;;0.20;99.90;;;;;;5079951;28;20413;-73
2021/01/15 01:33:43;;;;;;;3.10;2.90;;;0.20;99.90;;;;;;5079259;28;20411;-75
2021/01/15 01:36:09;;;;;;;3.73;2.70;;;0.20;99.90;;;;;;5077888;28;20436;-75
2021/01/15 01:38:36;;;;;;;4.37;3.03;;;0.20;99.90;;;;;;5078822;28;20453;-74
2021/01/15 01:41:01;;;;;;;3.57;2.70;;;0.20;99.90;;;;;;5080369;28;20393;-75
2021/01/15 01:43:27;;;;;;;6.33;2.63;;;0.20;99.90;;;;;;5079968;28;20412;-75
2021/01/15 01:45:53;;;;;;;5.57;3.33;;;0.10;99.90;;;;;;5083405;28;20211;-75
2021/01/15 01:48:20;;;;;;;2.87;2.50;;;0.10;99.90;;;;;;5071173;28;20581;-75
2021/01/15 01:50:49;;;;;;;4.93;3.00;;;0.10;99.90;;;;;;5079478;28;20446;-74
2021/01/15 01:53:20;;;;;;;3.57;2.33;;;0.10;99.90;;;;;;5078146;28;20439;-74
2021/01/15 01:55:47;;;;;;;5.33;2.53;;;0.10;99.90;;;;;;5079542;28;20462;-74
2021/01/15 01:58:15;;;;;;;6.70;2.03;;;0.10;99.90;;;;;;5079736;28;20995;-74
2021/01/15 02:00:40;;;;;;;5.13;2.47;;;0.00;99.90;;;;;;5078260;28;20529;-75
2021/01/15 02:03:07;;;;;;;2.50;2.30;;;0.10;99.90;;;;;;5078492;28;20495;-74
2021/01/15 02:05:32;;;;;;;3.50;2.40;;;0.00;99.90;;;;;;5076447;28;20208;-74
2021/01/15 02:07:58;;;;;;;5.60;2.50;;;0.00;99.90;;;;;;5080594;28;20917;-74
2021/01/15 02:10:30;;;;;;;4.27;2.50;;;0.10;99.90;;;;;;5074795;28;20193;-74
2021/01/15 02:13:01;;;;;;;3.70;2.40;;;0.10;99.90;;;;;;5078179;28;20525;-74
2021/01/15 02:15:44;;;;;;;3.80;2.47;;;0.00;99.90;;;;;;5076101;28;20985;-75
2021/01/15 02:18:18;;;;;;;2.50;2.13;;;0.00;99.90;;;;;;5080122;28;20414;-73
2021/01/15 02:21:05;;;;;;;2.60;2.20;;;0.00;99.90;;;;;;5071788;28;20411;-74
2021/01/15 02:23:38;;;;;;;5.13;2.20;;;0.00;99.90;;;;;;5079347;28;20408;-74
2021/01/15 02:26:38;;;;;;;2.27;2.07;;;-0.10;99.90;;;;;;5075227;28;20531;-74
2021/01/15 02:29:11;;;;;;;3.07;2.10;;;-0.10;99.90;;;;;;5078951;28;20432;-74
2021/01/15 02:31:45;;;;;;;4.13;2.53;;;-0.10;99.90;;;;;;5075498;28;20405;-74
2021/01/15 02:34:13;;;;;;;2.43;2.23;;;-0.10;99.90;;;;;;5075751;28;20441;-74
2021/01/15 02:37:07;;;;;;;2.50;2.30;;;-0.10;99.90;;;;;;5077630;28;20443;-74
2021/01/15 02:39:54;;;;;;;3.70;2.20;;;-0.10;99.90;;;;;;5078183;28;20863;-74
2021/01/15 02:42:22;;;;;;;4.87;2.10;;;-0.10;99.90;;;;;;5069953;28;20442;-74
2021/01/15 02:44:50;;;;;;;3.13;2.63;;;-0.10;99.90;;;;;;5082092;28;20870;-75
2021/01/15 02:47:28;;;;;;;3.03;2.50;;;0.00;99.90;;;;;;5076577;28;20490;-74
2021/01/15 02:49:56;;;;;;;4.27;2.37;;;-0.10;99.90;;;;;;5074717;28;20502;-75
2021/01/15 02:52:22;;;;;;;1.93;1.80;;;-0.10;99.90;;;;;;5076159;28;20418;-75
2021/01/15 02:54:48;;;;;;;2.43;2.23;;;-0.10;99.90;;;;;;5076772;28;20549;-74
2021/01/15 02:57:13;;;;;;;2.50;2.30;;;-0.20;99.90;;;;;;5076335;28;20524;-74
2021/01/15 02:59:39;;;;;;;2.90;2.67;;;-0.20;99.90;;;;;;5080261;28;20191;-75
2021/01/15 03:02:14;;;;;;;6.33;2.70;;;-0.20;99.90;;;;;;5080176;28;20176;-74
2021/01/15 03:05:02;;;;;;;2.50;2.30;;;-0.20;99.90;;;;;;5076021;28;20188;-74
2021/01/15 03:07:28;;;;;;;2.70;2.33;;;-0.20;99.90;;;;;;5081457;28;20414;-75
2021/01/15 03:09:56;;;;;;;4.70;2.40;;;-0.20;99.90;;;;;;5077152;28;20448;-74
2021/01/15 03:12:24;;;;;;;2.17;2.07;;;-0.30;99.90;;;;;;5074481;28;20425;-74
2021/01/15 03:14:52;;;;;;;3.20;2.80;;;-0.30;99.90;;;;;;5067728;28;20828;-74
2021/01/15 03:17:24;;;;;;;3.00;2.80;;;-0.30;99.90;;;;;;5085461;28;20472;-74
2021/01/15 03:19:51;;;;;;;4.63;3.00;;;-0.30;99.90;;;;;;5075880;28;20551;-74
2021/01/15 03:22:18;;;;;;;3.13;2.87;;;-0.40;99.90;;;;;;5081411;28;20596;-75
2021/01/15 03:24:53;;;;;;;3.53;3.23;;;-0.40;99.90;;;;;;5082099;28;20515;-74
2021/01/15 03:27:20;;;;;;;5.60;2.60;;;-0.40;99.90;;;;;;5082628;28;20481;-75
2021/01/15 03:29:46;;;;;;;4.90;2.37;;;-0.50;99.90;;;;;;5081245;28;20419;-74
2021/01/15 03:32:12;;;;;;;4.83;3.07;;;-0.50;99.90;;;;;;5084110;28;20388;-75
2021/01/15 03:34:38;;;;;;;3.77;3.00;;;-0.50;99.90;;;;;;5076695;28;20432;-75
2021/01/15 03:37:04;;;;;;;6.70;2.33;;;-0.50;99.90;;;;;;5081481;28;20467;-74
2021/01/15 03:39:29;;;;;;;7.13;3.00;;;-0.50;99.90;;;;;;5082427;28;20255;-74
2021/01/15 03:41:55;;;;;;;3.83;2.17;;;-0.50;99.90;;;;;;5082567;28;20190;-75
2021/01/15 03:44:21;;;;;;;3.23;3.00;;;-0.50;99.90;;;;;;5085346;28;20643;-74
2021/01/15 03:46:46;;;;;;;3.00;2.53;;;-0.50;99.90;;;;;;5075066;28;20545;-75
2021/01/15 03:49:12;;;;;;;2.97;2.77;;;-0.50;99.90;;;;;;5079604;28;20188;-73
2021/01/15 03:51:37;;;;;;;4.33;3.60;;;-0.50;99.90;;;;;;5080166;28;20184;-73
2021/01/15 03:54:03;;;;;;;4.30;3.90;;;-0.50;99.90;;;;;;5083611;28;20207;-74
2021/01/15 03:56:29;;;;;;;3.30;2.70;;;-0.50;99.90;;;;;;5080079;28;20212;-74
2021/01/15 03:58:54;;;;;;;2.53;2.37;;;-0.50;99.90;;;;;;5080190;28;20604;-74
2021/01/15 04:01:20;;;;;;;3.60;3.33;;;-0.60;99.90;;;;;;5077306;28;20181;-74
2021/01/15 04:03:45;;;;;;;5.60;3.30;;;-0.60;99.90;;;;;;5079713;28;20175;-74
2021/01/15 04:06:11;;;;;;;3.67;3.20;;;-0.60;99.90;;;;;;5079001;28;20188;-75
2021/01/15 04:08:36;;;;;;;3.33;3.13;;;-0.70;99.90;;;;;;5078732;28;20176;-74
2021/01/15 04:11:02;;;;;;;4.93;3.60;;;-0.70;99.90;;;;;;5083665;28;20586;-74
2021/01/15 04:13:28;;;;;;;3.20;3.00;;;-0.70;99.90;;;;;;5079528;28;20673;-73
2021/01/15 04:15:53;;;;;;;5.93;3.47;;;-0.70;99.90;;;;;;5084379;28;20432;-75
2021/01/15 04:18:19;;;;;;;3.03;2.83;;;-0.70;99.90;;;;;;5078808;28;20205;-75
2021/01/15 04:20:44;;;;;;;6.30;3.50;;;-0.70;99.90;;;;;;5081278;28;20195;-74
2021/01/15 04:23:10;;;;;;;3.77;3.37;;;-0.80;99.90;;;;;;5077803;28;20186;-74
2021/01/15 04:25:35;;;;;;;2.97;2.77;;;-0.80;99.90;;;;;;5114043;27;20201;-73
2021/01/15 04:28:02;;;;;;;3.17;2.80;;;-0.90;99.90;;;;;;5079640;28;20254;-74
2021/01/15 04:30:28;;;;;;;3.70;3.03;;;-0.90;99.90;;;;;;5078403;28;20183;-75
2021/01/15 04:32:54;;;;;;;5.20;3.70;;;-0.90;99.90;;;;;;5080680;28;20401;-75
2021/01/15 04:35:19;;;;;;;3.53;2.90;;;-0.90;99.90;;;;;;5077930;28;20290;-75
2021/01/15 04:37:47;;;;;;;3.63;3.33;;;-1.00;99.90;;;;;;5083519;28;20187;-75
2021/01/15 04:40:13;;;;;;;3.70;3.40;;;-1.10;99.90;;;;;;5078874;28;20417;-75
2021/01/15 04:42:43;;;;;;;7.80;3.20;;;-1.10;99.90;;;;;;5075880;28;20441;-74
2021/01/15 04:45:16;;;;;;;3.70;3.43;;;-1.20;99.90;;;;;;5080249;28;20449;-74
2021/01/15 04:47:47;;;;;;;4.17;3.77;;;-1.20;99.90;;;;;;5076777;28;20406;-74
2021/01/15 04:50:15;;;;;;;4.60;3.30;;;-1.20;99.90;;;;;;5075647;28;20417;-74
2021/01/15 04:52:51;;;;;;;3.60;3.30;;;-1.20;99.90;;;;;;5081903;28;20482;-74
2021/01/15 04:55:20;;;;;;;4.40;2.97;;;-1.30;99.90;;;;;;5079701;28;20420;-74
2021/01/15 04:57:49;;;;;;;5.70;3.80;;;-1.30;99.90;;;;;;5080178;28;20458;-74
2021/01/15 05:00:18;;;;;;;4.00;3.23;;;-1.30;99.90;;;;;;5082769;28;20863;-74
2021/01/15 05:02:48;;;;;;;6.57;3.97;;;-1.30;99.90;;;;;;5075793;28;20936;-75
2021/01/15 05:05:25;;;;;;;4.10;3.57;;;-1.30;99.90;;;;;;5078548;28;20488;-74
2021/01/15 05:08:12;;;;;;;3.83;3.17;;;-1.30;99.90;;;;;;5070597;28;20465;-75
2021/01/15 05:10:42;;;;;;;4.10;3.67;;;-1.40;99.90;;;;;;5080074;28;20817;-74
2021/01/15 05:13:09;;;;;;;4.27;3.87;;;-1.40;99.90;;;;;;5075217;28;20426;-74
2021/01/15 05:15:37;;;;;;;7.03;3.57;;;-1.40;99.90;;;;;;5079083;28;20423;-74
2021/01/15 05:18:05;;;;;;;5.70;3.80;;;-1.40;99.90;;;;;;5078558;28;20910;-74
2021/01/15 05:20:31;;;;;;;6.90;3.93;;;-1.50;99.90;;;;;;5078268;28;20408;-74
2021/01/15 05:23:02;;;;;;;4.37;3.97;;;-1.50;99.90;;;;;;5082313;28;20405;-75
2021/01/15 05:25:29;;;;;;;5.30;3.63;;;-1.50;99.90;;;;;;5079996;28;20915;-75
2021/01/15 05:27:55;;;;;;;6.33;4.10;;;-1.60;99.90;;;;;;5077709;28;20467;-74
2021/01/15 05:30:27;;;;;;;4.63;4.23;;;-1.60;99.90;;;;;;5075563;28;20421;-74
2021/01/15 05:33:09;;;;;;;3.90;3.50;;;-1.60;99.90;;;;;;5075563;28;20409;-74
2021/01/15 05:35:53;;;;;;;4.70;4.30;;;-1.60;99.90;;;;;;5082624;28;20413;-73
2021/01/15 05:38:21;;;;;;;4.93;4.17;;;-1.70;99.90;;;;;;5078784;28;21016;-74
2021/01/15 05:40:49;;;;;;;8.77;5.77;;;-1.70;99.90;;;;;;5078781;28;20939;-74
2021/01/15 05:43:33;;;;;;;6.60;4.27;;;-1.70;99.90;;;;;;5081884;28;20933;-75
2021/01/15 05:46:06;;;;;;;5.10;4.43;;;-1.70;99.90;;;;;;5075762;28;20467;-74
2021/01/15 05:48:33;;;;;;;10.53;4.93;;;-1.80;99.90;;;;;;5079180;28;20387;-74
2021/01/15 05:50:59;;;;;;;4.50;3.57;;;-1.80;99.90;;;;;;5080006;28;20930;-74
2021/01/15 05:53:25;;;;;;;3.83;3.30;;;-1.90;99.90;;;;;;5078003;28;20410;-75
2021/01/15 05:55:57;;;;;;;3.93;3.53;;;-1.80;99.90;;;;;;5071292;28;20606;-74
2021/01/15 05:58:24;;;;;;;3.73;3.47;;;-1.90;99.90;;;;;;5094801;28;20440;-74
2021/01/15 06:00:53;;;;;;;6.97;4.43;;;-1.90;99.90;;;;;;5080372;28;20873;-74
2021/01/15 06:03:22;;;;;;;5.60;3.90;;;-1.90;99.90;;;;;;5079167;28;20235;-74
2021/01/15 06:05:52;;;;;;;4.90;4.50;;;-2.00;99.90;;;;;;5076288;28;20499;-74
2021/01/15 06:08:18;;;;;;;7.80;3.87;;;-2.00;99.90;;;;;;5082153;28;20852;-74
2021/01/15 06:10:46;;;;;;;8.57;4.20;;;-2.00;99.90;;;;;;5078037;28;20422;-74
2021/01/15 06:13:38;;;;;;;6.70;3.67;;;-2.00;99.90;;;;;;5081301;28;20428;-74
2021/01/15 06:16:07;;;;;;;4.90;3.93;;;-1.90;99.90;;;;;;5073920;28;20481;-73
2021/01/15 06:18:32;;;;;;;5.53;4.37;;;-2.00;99.90;;;;;;5080232;28;20506;-74
2021/01/15 06:21:08;;;;;;;4.27;3.97;;;-2.00;99.90;;;;;;5077156;28;20505;-74
2021/01/15 06:23:42;;;;;;;10.17;4.07;;;-2.00;99.90;;;;;;5078005;28;20174;-74
2021/01/15 06:26:10;;;;;;;4.67;3.70;;;-2.00;99.90;;;;;;5080745;28;20398;-74
2021/01/15 06:28:38;;;;;;;7.77;4.63;;;-2.00;99.90;;;;;;5080687;28;20429;-74
2021/01/15 06:31:08;;;;;;;9.23;4.33;;;-2.00;99.90;;;;;;5080440;28;20463;-74
2021/01/15 06:33:34;;;;;;;7.77;4.53;;;-2.00;99.90;;;;;;5079446;28;20866;-75
2021/01/15 06:36:04;;;;;;;6.77;4.83;;;-2.00;99.90;;;;;;5079127;28;20440;-75
2021/01/15 06:38:30;;;;;;;6.50;4.60;;;-2.10;99.90;;;;;;5079452;28;20404;-75
2021/01/15 06:40:57;;;;;;;10.23;4.70;;;-2.10;99.90;;;;;;5082036;28;20396;-74
2021/01/15 06:43:29;;;;;;;5.53;4.27;;;-2.10;99.90;;;;;;5077483;28;20930;-72
2021/01/15 06:46:02;;;;;;;11.53;7.50;;;-2.10;99.90;;;;;;5075163;28;20423;-72
2021/01/15 06:48:28;;;;;;;8.70;4.43;;;-2.00;99.90;;;;;;5076296;28;20838;-72
2021/01/15 06:50:57;;;;;;;8.13;4.53;;;-2.00;99.90;;;;;;5086069;28;20910;-71
2021/01/15 06:53:29;;;;;;;5.33;4.40;;;-2.00;99.90;;;;;;5078789;28;20401;-73
2021/01/15 06:56:05;;;;;;;7.43;5.27;;;-2.00;99.90;;;;;;5077761;28;20449;-73
2021/01/15 06:58:41;;;;;;;12.87;5.10;;;-1.90;99.90;;;;;;5085057;28;20397;-72
2021/01/15 07:01:16;;;;;;;6.70;4.97;;;-1.90;99.90;;;;;;5084626;28;20409;-72
2021/01/15 07:04:18;;;;;;;5.03;4.53;;;-1.90;99.90;;;;;;5083449;28;20423;-72
2021/01/15 07:07:01;;;;;;;7.90;5.27;;;-1.90;99.90;;;;;;5084205;28;20541;-72
2021/01/15 07:09:27;;;;;;;8.63;5.60;;;-1.90;99.90;;;;;;5079205;28;20423;-71
2021/01/15 07:11:55;;;;;;;17.77;8.73;;;-1.90;99.90;;;;;;5085641;28;20441;-72
2021/01/15 07:14:28;;;;;;;9.43;6.77;;;-1.90;99.90;;;;;;5077969;28;20436;-73
2021/01/15 07:16:58;;;;;;;10.07;5.80;;;-1.90;99.90;;;;;;5078347;28;20478;-72
2021/01/15 07:19:58;;;;;;;9.50;5.80;;;-1.80;99.90;;;;;;5078645;28;20430;-73
2021/01/15 07:22:35;;;;;;;12.07;7.40;;;-1.80;99.90;;;;;;5074400;28;20420;-73
2021/01/15 07:25:04;;;;;;;7.97;6.23;;;-1.90;99.90;;;;;;5081804;28;20835;-72
2021/01/15 07:27:30;;;;;;;7.47;4.90;;;-1.90;99.90;;;;;;5084432;28;20925;-72
2021/01/15 07:29:56;;;;;;;9.30;6.27;;;-1.90;99.90;;;;;;5082202;28;20463;-72
2021/01/15 07:32:28;;;;;;;15.47;8.30;;;-1.90;99.90;;;;;;5084932;28;20667;-72
2021/01/15 07:34:57;;;;;;;9.40;6.67;;;-1.90;99.90;;;;;;5078392;28;20211;-73
2021/01/15 07:37:25;;;;;;;9.50;6.07;;;-1.80;99.90;;;;;;5076949;28;20823;-74
2021/01/15 07:40:09;;;;;;;9.30;5.83;;;-1.80;99.90;;;;;;5077901;28;20411;-73
2021/01/15 07:42:48;;;;;;;8.53;7.17;;;-1.80;99.90;;;;;;5080693;28;20486;-72
2021/01/15 07:45:23;;;;;;;10.77;7.23;;;-1.70;99.90;;;;;;5082263;28;20894;-72
2021/01/15 07:47:50;;;;;;;12.23;6.73;;;-1.60;99.90;;;;;;5084821;28;20908;-72
2021/01/15 07:50:37;;;;;;;10.97;7.10;;;-1.70;99.90;;;;;;5081971;28;20396;-73
2021/01/15 07:53:12;;;;;;;12.37;7.10;;;-1.60;99.90;;;;;;5079874;28;20394;-72
2021/01/15 07:56:02;;;;;;;11.43;7.00;;;-1.50;99.90;;;;;;5082922;28;20423;-71
2021/01/15 07:58:37;;;;;;;9.93;6.30;;;-1.50;99.90;;;;;;5078414;28;20419;-72
2021/01/15 08:01:11;;;;;;;16.47;7.50;;;-1.40;99.90;;;;;;5081523;28;20998;-73
2021/01/15 08:03:42;;;;;;;14.07;7.17;;;-1.30;99.90;;;;;;5082969;28;20957;-72
2021/01/15 08:06:09;;;;;;;11.80;7.90;;;-1.20;99.90;;;;;;5082824;28;20445;-72
2021/01/15 08:08:41;;;;;;;9.73;6.23;;;-1.20;99.90;;;;;;5083324;28;20391;-72
2021/01/15 08:11:14;;;;;;;8.77;5.23;;;-1.10;99.90;;;;;;5082718;28;20397;-72
2021/01/15 08:13:40;;;;;;;10.07;6.50;;;-1.20;99.90;;;;;;5082365;28;20395;-72
2021/01/15 08:16:06;;;;;;;9.27;5.83;;;-1.10;99.90;;;;;;5080973;28;20505;-72
2021/01/15 08:18:33;;;;;;;14.50;7.17;;;-1.10;99.90;;;;;;5083505;28;20683;-73
2021/01/15 08:20:59;;;;;;;11.80;6.43;;;-1.10;99.90;;;;;;5081368;28;20403;-72
2021/01/15 08:23:27;;;;;;;10.83;6.77;;;-0.90;99.90;;;;;;5084194;28;20397;-72
2021/01/15 08:26:39;;;;;;;13.90;6.70;;;-0.90;99.90;;;;;;5077011;28;20995;-73
2021/01/15 08:29:04;;;;;;;11.57;6.67;;;-0.90;99.90;;;;;;5081423;27;20452;-72
2021/01/15 08:31:30;;;;;;;10.80;6.67;;;-0.80;99.90;;;;;;5083358;28;20813;-72
2021/01/15 08:34:05;;;;;;;11.33;7.53;;;-0.70;99.90;;;;;;5080736;28;20203;-72
2021/01/15 08:36:31;;;;;;;13.43;7.80;;;-0.60;99.90;;;;;;5083076;28;20195;-73
2021/01/15 08:38:57;;;;;;;13.83;6.97;;;-0.60;99.90;;;;;;5080827;28;20548;-72
2021/01/15 08:41:26;;;;;;;10.77;7.40;;;-0.60;99.90;;;;;;5083824;28;20570;-72
2021/01/15 08:43:55;;;;;;;9.23;6.60;;;-0.60;99.90;;;;;;5076435;28;20392;-72
2021/01/15 08:46:23;;;;;;;11.10;8.37;;;-0.50;99.90;;;;;;5076216;28;20398;-72
2021/01/15 08:48:49;;;;;;;17.50;6.60;;;-0.50;99.90;;;;;;5082513;28;20415;-72
2021/01/15 08:51:25;;;;;;;12.60;7.83;;;-0.50;99.90;;;;;;5080779;28;20833;-72
2021/01/15 08:54:05;;;;;;;11.40;7.00;;;-0.40;99.90;;;;;;5076190;28;20409;-72
2021/01/15 08:56:36;;;;;;;8.53;6.40;;;-0.40;99.90;;;;;;5078198;28;20548;-72
2021/01/15 08:59:03;;;;;;;10.47;7.10;;;-0.40;99.90;;;;;;5082920;28;20387;-72
2021/01/15 09:01:31;;;;;;;18.13;8.33;;;-0.30;99.90;;;;;;5080362;28;20420;-72
2021/01/15 09:04:01;;;;;;;11.50;7.20;;;-0.30;99.90;;;;;;5083179;28;20472;-72
2021/01/15 09:06:28;;;;;;;10.43;6.90;;;-0.20;99.90;;;;;;5080004;28;20394;-71
2021/01/15 09:08:57;;;;;;;18.47;7.90;;;-0.10;99.90;;;;;;5083567;28;20392;-72
2021/01/15 09:11:27;;;;;;;20.20;7.30;;;-0.10;99.90;;;;;;5075914;28;20429;-72
2021/01/15 09:13:53;;;;;;;12.20;7.63;;;-0.10;99.90;;;;;;5075123;28;20491;-72
2021/01/15 09:16:21;;;;;;;9.73;7.53;;;0.10;99.90;;;;;;5082743;28;20442;-71
2021/01/15 09:18:48;;;;;;;10.67;7.70;;;0.50;99.90;;;;;;5080353;28;20838;-71
2021/01/15 09:21:13;;;;;;;10.83;7.93;;;0.90;99.90;;;;;;5080773;28;20415;-73
2021/01/15 09:23:39;;;;;;;11.53;8.53;;;1.30;99.90;;;;;;5081317;28;21091;-72
2021/01/15 09:26:04;;;;;;;10.17;7.60;;;1.80;99.90;;;;;;5080866;28;20181;-72
2021/01/15 09:28:30;;;;;;;13.03;8.30;;;2.20;99.90;;;;;;5082465;28;20226;-71
2021/01/15 09:30:55;;;;;;;10.00;7.13;;;2.70;99.90;;;;;;5079819;28;20190;-72
2021/01/15 09:33:21;;;;;;;11.03;6.80;;;3.20;99.90;;;;;;5082727;28;20180;-71
2021/01/15 09:35:46;;;;;;;14.17;8.00;;;3.50;99.90;;;;;;5079809;28;20204;-71
2021/01/15 09:38:12;;;;;;;14.30;8.60;;;3.90;99.90;;;;;;5081633;28;20518;-72
2021/01/15 09:40:37;;;;;;;9.80;7.20;;;4.30;99.90;;;;;;5080709;28;20172;-71
2021/01/15 09:43:03;;;;;;;7.60;6.80;;;4.50;99.90;;;;;;5080833;28;20183;-72
2021/01/15 09:45:28;;;;;;;11.30;7.97;;;4.70;99.90;;;;;;5082923;28;20214;-72
2021/01/15 09:47:54;;;;;;;10.13;8.33;;;4.70;99.90;;;;;;5079667;28;20170;-72
2021/01/15 09:50:20;;;;;;;12.50;7.90;;;4.80;99.90;;;;;;5082272;28;20180;-72
2021/01/15 09:52:48;;;;;;;9.03;7.80;;;5.00;99.90;;;;;;5079768;28;20662;-72
2021/01/15 09:55:14;;;;;;;8.27;7.27;;;5.10;99.90;;;;;;5081339;28;20224;-74
2021/01/15 09:57:43;;;;;;;12.53;7.87;;;5.20;99.90;;;;;;5080181;28;21054;-72
2021/01/15 10:00:11;;;;;;;14.33;8.60;;;5.20;99.90;;;;;;5080732;28;20646;-72
2021/01/15 10:02:36;;;;;;;11.57;7.73;;;5.20;99.90;;;;;;5080572;28;20429;-70
2021/01/15 10:05:03;;;;;;;13.27;9.43;;;5.20;99.90;;;;;;5079276;28;20411;-72
2021/01/15 10:07:29;;;;;;;9.70;8.20;;;5.00;99.90;;;;;;5078009;28;20183;-75
2021/01/15 10:09:54;;;;;;;12.83;8.73;;;5.20;99.90;;;;;;5082985;28;20415;-73
2021/01/15 10:12:20;;;;;;;8.80;7.70;;;5.10;99.90;;;;;;5077275;28;20199;-74
2021/01/15 10:14:45;;;;;;;12.83;8.27;;;5.40;99.90;;;;;;5081701;28;20242;-74
2021/01/15 10:17:11;;;;;;;11.10;8.43;;;5.60;99.90;;;;;;5079774;28;20207;-74
2021/01/15 10:19:36;;;;;;;19.07;9.23;;;5.70;99.90;;;;;;5080328;28;20187;-75
2021/01/15 10:22:02;;;;;;;10.30;8.00;;;5.70;99.90;;;;;;5081311;28;20264;-72
2021/01/15 10:24:27;;;;;;;10.70;8.03;;;5.70;99.90;;;;;;5079293;28;20198;-74
2021/01/15 10:26:53;;;;;;;14.80;9.10;;;5.80;99.90;;;;;;5086492;28;20177;-74
2021/01/15 10:29:18;;;;;;;9.80;8.37;;;5.80;99.90;;;;;;5082934;28;20184;-74
2021/01/15 10:31:45;;;;;;;11.63;9.33;;;5.80;99.90;;;;;;5084263;28;20597;-75
2021/01/15 10:34:11;;;;;;;13.07;9.40;;;5.80;99.90;;;;;;5083999;28;20195;-74
2021/01/15 10:36:41;;;;;;;11.03;8.17;;;6.00;99.90;;;;;;5084472;28;20469;-75
2021/01/15 10:39:06;;;;;;;13.37;9.30;;;6.00;99.90;;;;;;5084851;28;20495;-74
2021/01/15 10:41:34;;;;;;;14.97;9.57;;;5.90;99.90;;;;;;5082269;28;20468;-74
2021/01/15 10:44:03;;;;;;;14.67;8.53;;;5.90;99.90;;;;;;5085318;28;20205;-74
2021/01/15 10:46:38;;;;;;;13.13;8.97;;;5.60;99.90;;;;;;5081778;28;20857;-74
2021/01/15 10:49:08;;;;;;;11.70;7.67;;;5.60;99.90;;;;;;5083886;28;20425;-74
2021/01/15 10:51:34;;;;;;;16.40;7.90;;;5.80;99.90;;;;;;5083753;28;20512;-74
2021/01/15 10:54:01;;;;;;;12.20;10.10;;;5.60;99.90;;;;;;5083985;28;20537;-74
2021/01/15 10:56:40;;;;;;;11.17;8.10;;;5.60;99.90;;;;;;5081039;28;20461;-75
2021/01/15 10:59:07;;;;;;;10.20;8.33;;;5.60;99.90;;;;;;5084793;28;20421;-76
2021/01/15 11:01:37;;;;;;;12.93;8.70;;;5.70;99.90;;;;;;5083229;28;20498;-75
2021/01/15 11:04:06;;;;;;;15.00;9.23;;;5.70;99.90;;;;;;5084014;28;20444;-73
2021/01/15 11:06:31;;;;;;;11.77;9.13;;;5.80;99.90;;;;;;5083201;28;20457;-74
2021/01/15 11:08:57;;;;;;;14.60;10.50;;;5.80;99.90;;;;;;5085799;28;20453;-74
2021/01/15 11:11:22;;;;;;;16.03;11.87;;;5.70;99.90;;;;;;5079582;28;20258;-73
2021/01/15 11:13:48;;;;;;;14.03;9.77;;;5.70;99.90;;;;;;5081861;28;20179;-74
2021/01/15 11:16:14;;;;;;;13.50;9.23;;;5.70;99.90;;;;;;5084533;28;20751;-73
2021/01/15 11:18:41;;;;;;;13.93;9.50;;;5.90;99.90;;;;;;5083651;28;20209;-73
2021/01/15 11:21:08;;;;;;;9.73;7.93;;;5.70;99.90;;;;;;5083651;28;20421;-73
2021/01/15 11:23:33;;;;;;;12.30;9.23;;;5.80;99.90;;;;;;5084326;28;20409;-74
2021/01/15 11:25:59;;;;;;;13.47;9.47;;;5.70;99.90;;;;;;5081211;28;20508;-74
2021/01/15 11:28:25;;;;;;;17.93;9.50;;;5.70;99.90;;;;;;5085051;28;20183;-73
2021/01/15 11:30:51;;;;;;;13.53;10.20;;;5.70;99.90;;;;;;5076198;28;20425;-73
2021/01/15 11:33:17;;;;;;;12.53;8.90;;;5.60;99.90;;;;;;5084322;28;20876;-74
2021/01/15 11:35:42;;;;;;;13.80;9.27;;;5.40;99.90;;;;;;5080463;28;20294;-74
2021/01/15 11:38:08;;;;;;;12.40;8.83;;;5.30;99.90;;;;;;5083318;28;20171;-73
2021/01/15 11:40:33;;;;;;;11.13;9.13;;;5.30;99.90;;;;;;5084512;28;20181;-71
2021/01/15 11:42:59;;;;;;;12.60;9.30;;;5.50;99.90;;;;;;5081972;28;20691;-73
2021/01/15 11:45:25;;;;;;;19.40;9.60;;;5.30;99.90;;;;;;5083685;28;20201;-74
2021/01/15 11:47:52;;;;;;;15.30;10.53;;;5.10;99.90;;;;;;5081605;28;20558;-73
2021/01/15 11:50:19;;;;;;;16.10;10.33;;;5.00;99.90;;;;;;5084475;28;20987;-74
2021/01/15 11:52:44;;;;;;;19.63;9.87;;;5.10;99.90;;;;;;5082186;28;20424;-73
2021/01/15 11:55:10;;;;;;;14.10;8.20;;;5.10;99.90;;;;;;5083237;28;20486;-74
2021/01/15 11:57:36;;;;;;;16.77;10.47;;;4.90;99.90;;;;;;5082003;28;20284;-74
2021/01/15 12:00:03;;;;;;;15.10;10.23;;;4.70;99.90;;;;;;5082256;28;20424;-74
2021/01/15 12:02:31;;;;;;;18.40;11.37;;;4.70;99.90;;;;;;5083906;28;20259;-74
2021/01/15 12:04:56;;;;;;;15.17;10.07;;;4.80;99.90;;;;;;5081405;28;20809;-75
2021/01/15 12:07:22;;;;;;;11.03;8.67;;;4.60;99.90;;;;;;5084568;28;20412;-73
2021/01/15 12:09:47;;;;;;;12.60;9.73;;;4.50;99.90;;;;;;5082015;28;20181;-74
2021/01/15 12:12:13;;;;;;;11.90;8.80;;;4.60;99.90;;;;;;5083242;28;20183;-71
2021/01/15 12:14:38;;;;;;;13.20;8.60;;;4.60;99.90;;;;;;5082897;28;20660;-74
2021/01/15 12:17:04;;;;;;;13.20;8.80;;;4.60;99.90;;;;;;5080735;28;20617;-73
2021/01/15 12:19:29;;;;;;;12.10;8.63;;;4.70;99.90;;;;;;5084090;28;20185;-74
2021/01/15 12:21:55;;;;;;;13.30;8.87;;;4.70;99.90;;;;;;5080972;28;20228;-74
2021/01/15 12:24:21;;;;;;;10.47;8.00;;;4.70;99.90;;;;;;5083953;28;20669;-73
2021/01/15 12:26:46;;;;;;;10.17;7.90;;;4.50;99.90;;;;;;5081375;28;20221;-73
2021/01/15 12:29:12;;;;;;;9.80;7.23;;;4.40;99.90;;;;;;5083019;28;20181;-73
2021/01/15 12:31:37;;;;;;;8.93;7.13;;;4.20;99.90;;;;;;5082568;28;20178;-74
2021/01/15 12:34:03;;;;;;;10.43;7.73;;;4.10;99.90;;;;;;5081600;28;20278;-74
2021/01/15 12:36:29;;;;;;;12.73;8.43;;;4.00;99.90;;;;;;5083492;28;20201;-73
2021/01/15 12:38:55;;;;;;;13.00;8.83;;;4.00;99.90;;;;;;5080473;28;20528;-75
2021/01/15 12:41:20;;;;;;;10.37;7.90;;;4.00;99.90;;;;;;5086498;28;20170;-74
2021/01/15 12:43:47;;;;;;;11.30;7.87;;;4.10;99.90;;;;;;5080769;28;20186;-73
2021/01/15 12:46:13;;;;;;;13.90;9.03;;;4.10;99.90;;;;;;5082336;28;20182;-74
2021/01/15 12:48:39;;;;;;;10.80;8.77;;;4.10;99.90;;;;;;5081671;28;20927;-74
2021/01/15 12:51:06;;;;;;;17.50;12.40;;;4.10;99.90;;;;;;5081410;28;20427;-73
2021/01/15 12:53:33;;;;;;;15.97;9.63;;;4.10;99.90;;;;;;5082299;28;20487;-73
2021/01/15 12:55:58;;;;;;;14.03;9.63;;;4.10;99.90;;;;;;5080367;28;20429;-72